Time;durP1;ratioP1;P1;durP2;ratioP2;P2;SDS_P1;SDS_P2;PMS_P1;PMS_P2;Temp;Humidity;BMP_temperature;BMP_pressure;BME280_temperature;BME280_humidity;BME280_pressure;Samples;Min_cycle;Max_cycle;Signal;HPM_P1;HPM_P2
2021/08/23 00:00:17;;;;;;;4.47;3.10;;;;;;;16.07;81.30;102026.75;2625974;54;20155;-78
2021/08/23 00:02:43;;;;;;;4.97;3.93;;;;;;;15.96;81.51;102027.41;2625637;54;20135;-77
2021/08/23 00:05:10;;;;;;;4.67;3.40;;;;;;;16.16;80.86;102019.13;2625979;54;20135;-78
2021/08/23 00:07:35;;;;;;;5.57;3.80;;;;;;;16.01;81.16;102020.59;2626347;54;20144;-78
2021/08/23 00:10:02;;;;;;;4.97;3.50;;;;;;;15.90;81.47;102015.28;2625818;47;20135;-80
2021/08/23 00:12:29;;;;;;;4.93;3.37;;;;;;;15.98;81.37;102018.00;2625144;47;20768;-78
2021/08/23 00:14:58;;;;;;;4.50;3.47;;;;;;;15.96;81.09;102014.50;2624930;47;20213;-78
2021/08/23 00:17:23;;;;;;;5.27;3.73;;;;;;;15.96;80.99;102012.81;2625954;47;20882;-78
2021/08/23 00:19:48;;;;;;;5.80;3.13;;;;;;;16.03;81.01;102016.34;2626663;54;20164;-79
2021/08/23 00:22:31;;;;;;;3.70;3.03;;;;;;;15.90;80.96;102007.53;2626357;54;20135;-79
2021/08/23 00:24:59;;;;;;;5.73;3.03;;;;;;;15.85;81.10;102009.19;2625550;54;20142;-79
2021/08/23 00:27:25;;;;;;;6.47;2.90;;;;;;;15.75;81.59;102009.84;2625821;54;20135;-79
2021/08/23 00:29:51;;;;;;;6.63;2.80;;;;;;;15.81;81.65;102009.09;2626222;54;20127;-80
2021/08/23 00:32:16;;;;;;;3.70;3.30;;;;;;;15.92;81.70;102011.00;2626914;47;20139;-78
2021/08/23 00:34:41;;;;;;;5.27;3.13;;;;;;;15.89;81.13;102012.69;2626196;54;20120;-79
2021/08/23 00:37:07;;;;;;;3.33;2.77;;;;;;;15.84;81.82;102015.16;2625492;54;20142;-78
2021/08/23 00:39:37;;;;;;;5.77;3.90;;;;;;;15.80;82.01;102018.53;2625449;47;20143;-77
2021/08/23 00:42:06;;;;;;;4.83;3.10;;;;;;;15.81;81.46;102014.25;2625905;54;20132;-79
2021/08/23 00:44:32;;;;;;;5.23;3.40;;;;;;;15.96;81.27;102019.66;2626035;54;20136;-78
2021/08/23 00:46:59;;;;;;;6.27;3.83;;;;;;;16.02;81.18;102017.22;2625380;47;20180;-78
2021/08/23 00:49:24;;;;;;;5.03;3.47;;;;;;;15.99;81.46;102012.84;2626047;54;20267;-79
2021/08/23 00:51:51;;;;;;;5.93;3.83;;;;;;;15.91;81.30;102010.97;2625957;54;20171;-80
2021/08/23 00:54:17;;;;;;;5.90;3.80;;;;;;;16.10;81.22;102007.84;2626444;54;20134;-79
2021/08/23 00:56:43;;;;;;;6.10;3.67;;;;;;;16.09;81.12;102013.84;2626793;47;20135;-78
2021/08/23 00:59:09;;;;;;;4.80;3.63;;;;;;;15.98;81.25;102015.41;2626111;47;20163;-78
2021/08/23 01:02:00;;;;;;;7.30;3.47;;;;;;;15.95;81.08;102016.22;2626158;47;20131;-79
2021/08/23 01:04:38;;;;;;;4.60;3.70;;;;;;;15.90;81.07;102014.41;2625391;54;20151;-78
2021/08/23 01:07:08;;;;;;;5.33;3.50;;;;;;;15.92;81.38;102025.63;2625730;47;20127;-78
2021/08/23 01:09:38;;;;;;;3.83;2.90;;;;;;;15.90;81.60;102014.41;2625838;47;20191;-78
2021/08/23 01:12:04;;;;;;;4.50;3.17;;;;;;;15.82;81.87;102009.13;2626371;54;20131;-78
2021/08/23 01:14:30;;;;;;;3.57;3.23;;;;;;;15.89;81.61;102015.25;2626569;54;20179;-79
2021/08/23 01:16:55;;;;;;;5.83;3.37;;;;;;;15.92;81.71;102026.50;2626427;39;20629;-77
2021/08/23 01:19:22;;;;;;;4.10;3.13;;;;;;;15.98;81.46;102016.25;2626195;54;20143;-78
2021/08/23 01:21:52;;;;;;;5.43;2.97;;;;;;;15.95;81.77;102036.03;2626031;47;20123;-78
2021/08/23 01:24:18;;;;;;;5.40;3.07;;;;;;;16.01;81.51;102024.06;2626388;47;20139;-78
2021/08/23 01:26:48;;;;;;;5.03;3.00;;;;;;;15.96;81.72;102024.84;2626070;47;20131;-79
2021/08/23 01:29:19;;;;;;;4.80;3.10;;;;;;;15.97;81.31;102024.88;2625965;47;20159;-78
2021/08/23 01:31:52;;;;;;;4.77;3.43;;;;;;;15.94;81.39;102026.53;2626471;54;20136;-80
2021/08/23 01:34:19;;;;;;;3.97;3.20;;;;;;;16.06;81.76;102021.56;2626624;54;20124;-79
2021/08/23 01:36:45;;;;;;;3.10;2.30;;;;;;;15.99;81.29;102024.91;2625651;47;20131;-79
2021/08/23 01:39:10;;;;;;;5.30;2.57;;;;;;;16.06;81.50;102030.19;2626047;47;20155;-78
2021/08/23 01:41:36;;;;;;;5.27;2.60;;;;;;;16.07;81.42;102036.25;2626249;47;20132;-78
2021/08/23 01:44:01;;;;;;;3.53;2.40;;;;;;;16.17;80.23;102025.19;2626533;54;20155;-78
2021/08/23 01:46:31;;;;;;;5.63;2.17;;;;;;;16.21;79.39;102027.84;2625946;54;20461;-78
2021/08/23 01:48:58;;;;;;;2.07;1.80;;;;;;;16.27;79.15;102025.38;2626636;54;20488;-77
2021/08/23 01:51:24;;;;;;;3.67;2.00;;;;;;;16.35;78.60;102031.50;2626184;47;20219;-77
2021/08/23 01:53:50;;;;;;;4.43;2.10;;;;;;;16.38;78.71;102025.50;2626369;54;20138;-79
2021/08/23 01:56:15;;;;;;;4.30;1.97;;;;;;;16.24;79.49;102037.34;2625502;47;20143;-78
2021/08/23 01:58:40;;;;;;;3.03;2.40;;;;;;;16.19;79.53;102033.81;2625571;47;20155;-78
2021/08/23 02:01:05;;;;;;;3.27;2.10;;;;;;;16.06;79.71;102044.81;2625214;47;20193;-78
2021/08/23 02:03:31;;;;;;;4.20;2.37;;;;;;;16.05;80.20;102043.97;2625977;47;20135;-78
2021/08/23 02:05:56;;;;;;;4.27;2.33;;;;;;;16.02;80.36;102041.31;2625482;47;20132;-79
2021/08/23 02:08:21;;;;;;;4.50;2.23;;;;;;;16.26;79.43;102035.69;2625605;47;20163;-78
2021/08/23 02:10:48;;;;;;;5.53;1.83;;;;;;;16.13;79.66;102039.78;2625756;47;20146;-79
2021/08/23 02:13:13;;;;;;;6.10;2.20;;;;;;;15.97;80.22;102045.53;2626115;47;20138;-79
2021/08/23 02:15:40;;;;;;;3.60;2.10;;;;;;;15.90;80.33;102043.72;2626888;54;20136;-80
2021/08/23 02:18:06;;;;;;;4.03;1.97;;;;;;;16.06;79.58;102047.41;2626191;47;20163;-80
2021/08/23 02:20:32;;;;;;;3.07;2.10;;;;;;;16.12;79.54;102048.38;2626596;54;20135;-77
2021/08/23 02:22:58;;;;;;;3.53;1.80;;;;;;;16.13;79.06;102051.84;2626504;54;20131;-80
2021/08/23 02:25:24;;;;;;;7.33;2.13;;;;;;;16.23;78.40;102046.84;2626014;47;20139;-80
2021/08/23 02:27:50;;;;;;;2.73;1.50;;;;;;;16.09;78.97;102050.03;2626516;46;20715;-78
2021/08/23 02:30:15;;;;;;;3.23;1.77;;;;;;;16.21;78.14;102051.09;2625351;47;20235;-77
2021/08/23 02:32:41;;;;;;;4.40;1.60;;;;;;;16.19;78.10;102054.50;2626356;54;20223;-80
2021/08/23 02:35:06;;;;;;;3.63;1.70;;;;;;;16.16;78.50;102049.31;2625968;54;20131;-78
2021/08/23 02:37:32;;;;;;;4.37;1.77;;;;;;;16.10;78.87;102051.78;2626220;54;20167;-79
2021/08/23 02:39:57;;;;;;;2.13;1.53;;;;;;;16.07;79.10;102054.31;2626151;54;20128;-78
2021/08/23 02:42:22;;;;;;;2.07;1.53;;;;;;;15.89;79.56;102062.63;2626286;47;20633;-80
2021/08/23 02:44:47;;;;;;;3.03;1.63;;;;;;;16.03;79.16;102066.31;2625647;46;20150;-78
2021/08/23 02:47:13;;;;;;;2.00;1.30;;;;;;;16.09;79.20;102062.97;2628010;46;20139;-77
2021/08/23 02:49:38;;;;;;;5.33;1.40;;;;;;;16.06;78.90;102068.06;2626526;54;20166;-79
2021/08/23 02:52:03;;;;;;;3.07;1.73;;;;;;;16.06;78.91;102065.47;2626996;46;20143;-80
2021/08/23 02:54:29;;;;;;;3.07;1.60;;;;;;;15.92;79.37;102066.97;2626317;47;20192;-79
2021/08/23 02:56:54;;;;;;;3.87;1.47;;;;;;;15.91;79.66;102073.88;2625071;47;20159;-77
2021/08/23 02:59:19;;;;;;;3.53;1.53;;;;;;;15.81;79.69;102069.38;2625729;47;20191;-78
2021/08/23 03:01:45;;;;;;;3.40;1.47;;;;;;;15.93;79.47;102067.00;2625597;47;20187;-78
2021/08/23 03:04:10;;;;;;;3.23;1.50;;;;;;;15.94;79.13;102076.47;2625808;54;20139;-78
2021/08/23 03:06:35;;;;;;;4.03;2.03;;;;;;;16.06;78.67;102078.41;2626244;54;20143;-78
2021/08/23 03:09:00;;;;;;;1.97;1.57;;;;;;;15.99;78.93;102077.47;2625306;54;20652;-79
2021/08/23 03:11:26;;;;;;;3.63;1.47;;;;;;;15.88;79.40;102078.13;2626478;54;20170;-78
2021/08/23 03:13:52;;;;;;;2.23;1.40;;;;;;;16.01;79.01;102075.75;2625479;47;20135;-78
2021/08/23 03:16:17;;;;;;;1.73;1.40;;;;;;;15.90;79.43;102085.06;2625794;47;20178;-80
2021/08/23 03:18:42;;;;;;;2.67;1.10;;;;;;;15.80;79.83;102075.38;2625629;47;20202;-79
2021/08/23 03:21:08;;;;;;;5.33;1.80;;;;;;;16.09;78.60;102084.53;2625500;47;20132;-78
2021/08/23 03:23:33;;;;;;;2.63;1.67;;;;;;;15.93;79.11;102086.81;2625038;47;20139;-80
2021/08/23 03:26:00;;;;;;;4.93;1.57;;;;;;;15.93;79.27;102084.22;2626100;54;20170;-80
2021/08/23 03:28:26;;;;;;;2.47;1.40;;;;;;;15.94;79.22;102091.13;2626047;54;20155;-79
2021/08/23 03:30:51;;;;;;;2.37;1.47;;;;;;;15.84;79.59;102084.06;2626477;47;20143;-79
2021/08/23 03:33:17;;;;;;;3.13;1.70;;;;;;;15.78;79.89;102091.69;2625640;47;20143;-78
2021/08/23 03:35:42;;;;;;;1.73;1.20;;;;;;;15.69;80.61;102087.22;2625280;54;20131;-79
2021/08/23 03:38:08;;;;;;;2.60;1.40;;;;;;;15.81;80.13;102094.34;2625403;47;20242;-79
2021/08/23 03:40:34;;;;;;;4.67;1.40;;;;;;;15.87;79.83;102095.31;2625810;54;20135;-78
2021/08/23 03:42:59;;;;;;;3.80;1.50;;;;;;;16.16;79.07;102093.25;2625066;47;20138;-79
2021/08/23 03:45:25;;;;;;;3.17;1.60;;;;;;;16.22;79.00;102098.50;2626326;47;20132;-79
2021/08/23 03:47:50;;;;;;;3.60;1.63;;;;;;;16.13;78.85;102095.78;2625511;47;20193;-77
2021/08/23 03:50:16;;;;;;;4.07;1.60;;;;;;;15.98;79.30;102095.50;2624568;47;20135;-80
2021/08/23 03:52:41;;;;;;;3.97;1.63;;;;;;;16.06;79.23;102099.97;2624856;47;20742;-79
2021/08/23 03:55:08;;;;;;;2.97;1.60;;;;;;;15.90;79.80;102097.97;2624306;54;20132;-78
2021/08/23 03:57:35;;;;;;;3.10;1.50;;;;;;;15.97;79.74;102101.53;2624853;47;20151;-78
2021/08/23 04:00:02;;;;;;;3.00;1.70;;;;;;;15.99;79.83;102110.16;2625477;47;20147;-79
2021/08/23 04:02:27;;;;;;;4.97;1.70;;;;;;;15.95;79.81;102105.78;2625224;54;20168;-79
2021/08/23 04:04:53;;;;;;;2.53;1.53;;;;;;;15.98;79.83;102116.19;2626075;39;20901;-77
2021/08/23 04:07:18;;;;;;;3.87;1.70;;;;;;;15.87;79.83;102123.72;2625548;47;20151;-79
2021/08/23 04:09:43;;;;;;;5.33;1.70;;;;;;;16.04;79.38;102119.75;2625506;47;20166;-79
2021/08/23 04:12:09;;;;;;;5.30;1.77;;;;;;;15.96;79.40;102125.59;2624764;47;20135;-79
2021/08/23 04:14:34;;;;;;;3.70;1.77;;;;;;;15.89;80.12;102128.94;2625989;54;20136;-77
2021/08/23 04:17:00;;;;;;;3.83;1.80;;;;;;;15.81;80.33;102130.50;2625159;47;20139;-80
2021/08/23 04:19:26;;;;;;;4.33;2.03;;;;;;;15.76;80.20;102127.84;2624995;47;20237;-78
2021/08/23 04:21:51;;;;;;;3.17;1.70;;;;;;;15.65;80.37;102139.66;2625526;47;20171;-80
2021/08/23 04:24:17;;;;;;;5.27;1.90;;;;;;;15.61;80.72;102143.03;2625927;47;20145;-78
2021/08/23 04:26:42;;;;;;;2.93;1.60;;;;;;;15.64;80.58;102142.22;2627138;39;20574;-80
2021/08/23 04:29:07;;;;;;;4.27;1.80;;;;;;;15.52;81.16;102142.84;2626066;46;20222;-79
2021/08/23 04:31:34;;;;;;;4.50;1.93;;;;;;;15.48;81.67;102143.59;2626696;54;20279;-78
2021/08/23 04:33:59;;;;;;;2.90;2.00;;;;;;;15.46;81.81;102157.31;2626523;47;20139;-81
2021/08/23 04:36:24;;;;;;;4.77;1.87;;;;;;;15.54;81.45;102150.63;2627003;54;20131;-78
2021/08/23 04:38:50;;;;;;;2.97;1.53;;;;;;;15.50;81.75;102162.59;2626457;47;20190;-80
2021/08/23 04:41:15;;;;;;;4.47;2.00;;;;;;;15.53;81.63;102164.38;2626762;54;20167;-79
2021/08/23 04:43:40;;;;;;;4.80;1.70;;;;;;;15.56;81.27;102161.88;2627005;54;20215;-78
2021/08/23 04:46:06;;;;;;;5.33;2.30;;;;;;;15.58;81.08;102163.63;2629275;39;20596;-78
2021/08/23 04:48:31;;;;;;;4.47;1.93;;;;;;;15.66;80.96;102166.38;2626905;54;20147;-78
2021/08/23 04:50:56;;;;;;;5.43;2.20;;;;;;;15.58;81.22;102180.81;2626134;47;20132;-77
2021/08/23 04:53:22;;;;;;;5.23;1.87;;;;;;;15.47;81.83;102177.16;2626413;47;20128;-79
2021/08/23 04:55:47;;;;;;;3.43;2.00;;;;;;;15.41;82.16;102175.31;2628137;39;20604;-78
2021/08/23 04:58:12;;;;;;;4.80;2.03;;;;;;;15.61;81.83;102178.31;2625614;47;20171;-78
2021/08/23 05:00:37;;;;;;;5.13;1.80;;;;;;;15.61;81.79;102174.00;2626279;54;20132;-79
2021/08/23 05:03:03;;;;;;;4.33;1.93;;;;;;;15.52;82.01;102184.16;2625139;47;20165;-77
2021/08/23 05:05:28;;;;;;;5.13;1.77;;;;;;;15.52;82.08;102186.72;2625970;47;20179;-79
2021/08/23 05:07:53;;;;;;;4.83;1.80;;;;;;;15.44;82.43;102195.16;2624730;46;20194;-79
2021/08/23 05:10:19;;;;;;;5.43;2.00;;;;;;;15.43;82.70;102199.44;2624476;54;20143;-79
2021/08/23 05:12:44;;;;;;;5.00;2.07;;;;;;;15.56;82.34;102193.72;2625561;46;20158;-79
2021/08/23 05:15:10;;;;;;;5.73;2.13;;;;;;;15.57;82.62;102192.00;2625323;54;20131;-79
2021/08/23 05:17:35;;;;;;;4.13;1.93;;;;;;;15.66;81.98;102200.78;2625093;47;20155;-77
2021/08/23 05:20:00;;;;;;;4.67;1.97;;;;;;;15.79;82.11;102200.22;2626162;54;20151;-78
2021/08/23 05:22:26;;;;;;;4.33;2.27;;;;;;;15.93;81.84;102203.09;2624808;47;20131;-77
2021/08/23 05:24:51;;;;;;;5.70;1.80;;;;;;;15.83;81.96;102201.13;2625083;47;20158;-78
2021/08/23 05:27:17;;;;;;;5.77;1.97;;;;;;;16.00;81.62;102204.94;2626471;39;20591;-79
2021/08/23 05:29:43;;;;;;;5.50;2.23;;;;;;;15.97;81.88;102210.91;2625874;54;20148;-78
2021/08/23 05:32:08;;;;;;;6.47;2.53;;;;;;;16.18;81.57;102210.44;2626284;39;20831;-78
2021/08/23 05:34:34;;;;;;;3.77;2.23;;;;;;;16.36;80.75;102221.13;2624177;47;20128;-79
2021/08/23 05:36:59;;;;;;;4.70;1.83;;;;;;;16.42;80.33;102214.38;2624755;54;20139;-79
2021/08/23 05:39:24;;;;;;;5.70;1.80;;;;;;;16.50;80.18;102215.41;2624848;47;20182;-79
2021/08/23 05:41:49;;;;;;;4.23;2.17;;;;;;;16.57;79.58;102212.06;2626757;46;20143;-79
2021/08/23 05:44:15;;;;;;;5.47;2.30;;;;;;;16.60;79.74;102214.72;2626441;46;20146;-79
2021/08/23 05:46:40;;;;;;;6.10;2.40;;;;;;;16.70;79.67;102221.78;2626601;54;20276;-79
2021/08/23 05:49:05;;;;;;;4.43;1.90;;;;;;;16.68;80.01;102217.41;2625429;54;20152;-76
2021/08/23 05:51:30;;;;;;;5.50;2.30;;;;;;;16.98;78.90;102223.94;2625173;47;20139;-78
2021/08/23 05:53:56;;;;;;;8.03;2.20;;;;;;;17.05;78.32;102220.63;2625940;54;20767;-79
2021/08/23 05:56:21;;;;;;;3.77;1.77;;;;;;;17.12;77.94;102227.63;2627319;46;20139;-79
2021/08/23 05:58:46;;;;;;;5.80;2.00;;;;;;;17.30;77.74;102222.72;2626740;46;20163;-78
2021/08/23 06:01:11;;;;;;;4.27;2.00;;;;;;;17.35;77.62;102226.22;2624355;39;20543;-77
2021/08/23 06:03:37;;;;;;;3.27;1.70;;;;;;;17.41;76.95;102218.56;2625330;54;20127;-79
2021/08/23 06:06:08;;;;;;;4.73;1.73;;;;;;;17.48;76.98;102225.59;2628589;46;20147;-79
2021/08/23 06:08:35;;;;;;;5.50;2.00;;;;;;;17.55;76.54;102227.41;2626447;54;20177;-77
2021/08/23 06:11:01;;;;;;;5.17;2.00;;;;;;;17.67;76.43;102221.50;2630270;39;20546;-80
2021/08/23 06:13:26;;;;;;;4.83;2.10;;;;;;;17.85;75.82;102221.72;2627208;54;20136;-79
2021/08/23 06:15:54;;;;;;;6.40;2.47;;;;;;;17.95;75.40;102216.69;2625269;47;20136;-78
2021/08/23 06:18:19;;;;;;;6.60;1.90;;;;;;;18.04;75.00;102223.69;2626334;54;20222;-79
2021/08/23 06:20:44;;;;;;;3.40;2.00;;;;;;;18.32;74.98;102223.09;2625194;54;20135;-78
2021/08/23 06:23:09;;;;;;;4.53;1.83;;;;;;;18.17;75.31;102226.44;2625476;47;20119;-79
2021/08/23 06:25:35;;;;;;;4.50;1.87;;;;;;;18.51;73.51;102228.53;2626522;54;20155;-80
2021/08/23 06:28:00;;;;;;;4.03;1.97;;;;;;;18.49;73.89;102234.56;2625131;47;20167;-78
2021/08/23 06:30:25;;;;;;;3.20;1.90;;;;;;;18.51;73.27;102231.13;2625430;54;20132;-80
2021/08/23 06:32:51;;;;;;;3.40;1.83;;;;;;;18.54;74.20;102241.53;2626367;46;20127;-79
2021/08/23 06:35:16;;;;;;;3.80;1.70;;;;;;;18.81;72.21;102241.78;2626605;39;20615;-79
2021/08/23 06:37:42;;;;;;;5.83;1.90;;;;;;;18.88;72.12;102235.78;2625608;47;20183;-78
2021/08/23 06:40:08;;;;;;;4.33;1.90;;;;;;;18.95;71.95;102244.50;2626521;39;20418;-78
2021/08/23 06:42:36;;;;;;;4.80;2.00;;;;;;;18.97;70.83;102245.38;2624915;54;20175;-81
2021/08/23 06:45:01;;;;;;;2.77;1.80;;;;;;;19.05;70.93;102252.38;2625585;51;20123;-79
2021/08/23 06:47:26;;;;;;;4.07;1.80;;;;;;;19.18;70.21;102250.72;2624645;54;20179;-80
2021/08/23 06:49:52;;;;;;;4.07;1.80;;;;;;;19.37;70.02;102258.69;2625547;54;20128;-79
2021/08/23 06:52:17;;;;;;;5.37;2.10;;;;;;;19.62;68.49;102259.69;2626442;46;20139;-78
2021/08/23 06:54:42;;;;;;;3.40;1.93;;;;;;;19.74;68.10;102255.44;2623544;46;20136;-80
2021/08/23 06:57:08;;;;;;;2.53;1.63;;;;;;;19.82;68.52;102258.06;2622532;54;20136;-77
2021/08/23 06:59:33;;;;;;;7.73;1.80;;;;;;;19.99;68.72;102259.84;2621935;47;20572;-78
2021/08/23 07:01:58;;;;;;;4.73;2.00;;;;;;;20.15;66.86;102269.50;2622621;54;20139;-80
2021/08/23 07:04:23;;;;;;;5.47;1.80;;;;;;;20.00;67.53;102268.53;2625718;39;20737;-79
2021/08/23 07:06:49;;;;;;;2.97;2.00;;;;;;;20.29;66.51;102267.81;2622935;54;20143;-77
2021/08/23 07:09:14;;;;;;;3.50;1.70;;;;;;;20.37;65.87;102267.81;2624907;39;20645;-80
2021/08/23 07:11:39;;;;;;;3.93;1.90;;;;;;;20.48;65.89;102268.69;2624083;54;20131;-78
2021/08/23 07:14:04;;;;;;;2.87;1.70;;;;;;;20.70;65.86;102267.88;2623819;47;20138;-79
2021/08/23 07:16:30;;;;;;;3.53;1.40;;;;;;;20.73;64.59;102273.94;2623512;54;20127;-79
2021/08/23 07:18:55;;;;;;;3.40;1.50;;;;;;;20.77;64.01;102273.06;2622790;47;20223;-79
2021/08/23 07:21:21;;;;;;;4.97;1.90;;;;;;;20.90;65.01;102280.06;2623327;47;20166;-81
2021/08/23 07:23:48;;;;;;;3.43;1.80;;;;;;;21.10;63.03;102275.72;2624807;47;20135;-77
2021/08/23 07:26:18;;;;;;;2.47;1.70;;;;;;;21.31;61.71;102287.84;2623459;47;20131;-80
2021/08/23 07:28:44;;;;;;;3.50;1.93;;;;;;;21.34;61.95;102290.47;2623927;54;20211;-80
2021/08/23 07:31:09;;;;;;;3.07;1.73;;;;;;;21.34;60.83;102286.13;2624430;47;20159;-81
2021/08/23 07:33:35;;;;;;;3.67;1.60;;;;;;;21.47;59.82;102289.59;2624968;47;20130;-78
2021/08/23 07:36:00;;;;;;;3.07;1.57;;;;;;;21.44;59.63;102294.78;2625617;47;20123;-78
2021/08/23 07:38:28;;;;;;;3.63;1.70;;;;;;;21.68;59.60;102294.72;2625537;47;20256;-80
2021/08/23 07:40:54;;;;;;;2.60;1.50;;;;;;;21.67;58.26;102283.44;2624746;54;20136;-79
2021/08/23 07:43:19;;;;;;;3.10;1.50;;;;;;;21.72;58.80;102289.56;2624608;54;20163;-78
2021/08/23 07:45:45;;;;;;;2.70;1.40;;;;;;;21.88;58.22;102287.75;2625337;47;20131;-80
2021/08/23 07:48:11;;;;;;;2.50;1.30;;;;;;;22.09;58.78;102288.53;2625157;47;20170;-80
2021/08/23 07:50:37;;;;;;;2.87;1.60;;;;;;;22.14;58.55;102298.94;2624551;54;20154;-79
2021/08/23 07:53:03;;;;;;;3.57;1.50;;;;;;;22.42;58.33;102294.47;2623975;54;20131;-80
2021/08/23 07:55:30;;;;;;;2.57;1.30;;;;;;;22.49;57.45;102285.72;2624058;47;20136;-78
2021/08/23 07:57:56;;;;;;;3.43;1.60;;;;;;;22.66;56.95;102300.44;2625625;47;22048;-79
2021/08/23 08:00:22;;;;;;;4.27;1.73;;;;;;;22.59;56.11;102306.56;2624671;54;20123;-80
2021/08/23 08:02:48;;;;;;;2.70;1.57;;;;;;;22.74;56.47;102303.00;2624893;47;20254;-78
2021/08/23 08:05:13;;;;;;;3.30;1.60;;;;;;;22.74;54.97;102306.44;2626525;54;20253;-79
2021/08/23 08:07:39;;;;;;;2.40;1.57;;;;;;;22.86;55.08;102305.50;2625333;54;20144;-78
2021/08/23 08:10:06;;;;;;;2.63;1.40;;;;;;;22.99;54.69;102308.03;2625189;47;20139;-80
2021/08/23 08:12:32;;;;;;;2.40;1.50;;;;;;;23.05;55.00;102318.41;2624858;54;20222;-79
2021/08/23 08:14:59;;;;;;;2.53;1.50;;;;;;;23.25;53.60;102306.06;2625602;54;20291;-78
2021/08/23 08:17:24;;;;;;;3.87;1.70;;;;;;;23.49;53.25;102318.06;2632312;36;20206;-79
2021/08/23 08:19:50;;;;;;;2.73;1.40;;;;;;;23.65;52.54;102325.72;2624076;54;20139;-80
2021/08/23 08:22:15;;;;;;;2.97;1.53;;;;;;;23.75;52.14;102327.38;2624502;47;20135;-79
2021/08/23 08:24:42;;;;;;;2.80;1.23;;;;;;;23.73;51.13;102328.25;2624591;47;20622;-78
2021/08/23 08:27:07;;;;;;;2.60;1.40;;;;;;;23.80;50.19;102333.41;2624405;54;20170;-79
2021/08/23 08:29:33;;;;;;;1.95;1.30;;;;;;;23.96;51.31;102342.00;2624666;54;20141;-80
2021/08/23 08:31:58;;;;;;;3.30;1.48;;;;;;;24.21;52.38;102339.06;2628494;54;20139;-80
2021/08/23 08:34:23;;;;;;;3.15;1.48;;;;;;;24.44;50.56;102338.78;2628551;54;20189;-80
2021/08/23 08:36:49;;;;;;;3.05;1.55;;;;;;;24.64;49.87;102342.88;2623926;47;20139;-78
2021/08/23 08:39:14;;;;;;;2.88;1.50;;;;;;;24.73;49.25;102340.09;2623571;46;20162;-79
2021/08/23 08:41:39;;;;;;;3.03;1.48;;;;;;;24.87;48.16;102340.75;2621961;54;20159;-80
2021/08/23 08:44:05;;;;;;;3.83;1.70;;;;;;;24.94;48.79;102339.78;2622737;47;20139;-78
2021/08/23 08:46:33;;;;;;;2.20;1.25;;;;;;;25.00;47.99;102346.72;2622700;54;20171;-79
2021/08/23 08:48:59;;;;;;;3.63;1.60;;;;;;;25.24;47.31;102346.31;2623446;54;20267;-80
2021/08/23 08:51:25;;;;;;;2.88;1.30;;;;;;;25.17;46.35;102352.53;2620885;47;20143;-79
2021/08/23 08:53:50;;;;;;;2.95;1.50;;;;;;;25.51;45.15;102359.84;2621261;47;20155;-79
2021/08/23 08:56:16;;;;;;;2.22;1.50;;;;;;;25.60;46.55;102359.66;2619396;47;20145;-78
2021/08/23 08:58:42;;;;;;;2.92;1.58;;;;;;;25.80;44.96;102354.94;2620579;47;20140;-78
2021/08/23 09:01:07;;;;;;;2.30;1.70;;;;;;;26.08;43.85;102352.66;2619621;54;20143;-79
2021/08/23 09:03:32;;;;;;;3.05;1.65;;;;;;;26.28;44.29;102350.47;2620929;54;20697;-81
2021/08/23 09:06:08;;;;;;;4.80;1.70;;;;;;;26.25;42.65;102348.78;2620740;54;20135;-77
2021/08/23 09:08:43;;;;;;;4.20;1.67;;;;;;;26.46;42.82;102360.59;2620464;54;20139;-78
2021/08/23 09:11:10;;;;;;;2.05;1.63;;;;;;;26.55;42.86;102361.28;2620336;46;20139;-79
2021/08/23 09:13:36;;;;;;;2.63;1.33;;;;;;;26.61;43.15;102355.91;2620461;47;20132;-78
2021/08/23 09:16:01;;;;;;;3.17;1.60;;;;;;;26.68;42.71;102362.78;2622335;39;20576;-78
2021/08/23 09:18:28;;;;;;;2.90;1.60;;;;;;;26.73;42.70;102365.28;2621330;54;20163;-78
2021/08/23 09:21:11;;;;;;;2.58;1.67;;;;;;;26.78;41.48;102366.91;2621577;39;20625;-77
2021/08/23 09:23:40;;;;;;;2.85;2.00;;;;;;;26.77;42.36;102364.31;2621259;54;20139;-78
2021/08/23 09:26:08;;;;;;;2.90;1.77;;;;;;;26.80;40.69;102365.09;2621406;54;20140;-79
2021/08/23 09:28:33;;;;;;;3.72;1.58;;;;;;;26.90;40.07;102371.88;2620937;47;20143;-77
2021/08/23 09:30:59;;;;;;;2.67;1.50;;;;;;;26.93;40.65;102373.59;2619992;47;20146;-78
2021/08/23 09:33:24;;;;;;;3.08;2.00;;;;;;;26.99;40.72;102362.91;2619730;54;20159;-78
2021/08/23 09:35:52;;;;;;;2.97;1.60;;;;;;;26.99;40.47;102363.75;2622022;54;20120;-77
2021/08/23 09:38:18;;;;;;;2.80;2.08;;;;;;;27.09;39.78;102365.31;2621816;54;20159;-78
2021/08/23 09:40:46;;;;;;;2.38;1.80;;;;;;;27.28;40.45;102371.00;2622977;54;20139;-80
2021/08/23 09:43:16;;;;;;;3.22;1.80;;;;;;;27.54;39.78;102363.31;2621777;54;20131;-78
2021/08/23 09:45:47;;;;;;;2.10;1.55;;;;;;;27.73;38.92;102354.84;2620351;47;20139;-76
2021/08/23 09:48:13;;;;;;;2.25;1.40;;;;;;;27.74;39.06;102361.00;2621637;54;20139;-81
2021/08/23 09:50:44;;;;;;;3.65;1.70;;;;;;;27.97;38.62;102358.63;2621645;54;20238;-77
2021/08/23 09:53:15;;;;;;;3.22;1.55;;;;;;;28.23;38.20;102369.31;2620676;47;20152;-78
2021/08/23 09:55:43;;;;;;;2.10;1.40;;;;;;;28.34;37.98;102362.81;2620916;47;20139;-79
2021/08/23 09:58:09;;;;;;;2.53;1.63;;;;;;;28.57;37.18;102370.03;2620529;54;20197;-79
2021/08/23 10:00:37;;;;;;;1.80;1.63;;;;;;;28.70;37.34;102371.41;2621528;39;20560;-81
2021/08/23 10:03:13;;;;;;;2.70;1.77;;;;;;;28.79;36.84;102369.31;2621405;47;20132;-80
2021/08/23 10:05:47;;;;;;;3.20;1.98;;;;;;;28.73;37.01;102373.97;2624874;54;20142;-79
2021/08/23 10:08:16;;;;;;;4.38;2.30;;;;;;;28.88;37.21;102376.09;2623688;47;20138;-79
2021/08/23 10:10:44;;;;;;;3.20;1.90;;;;;;;28.76;35.38;102372.09;2624093;54;20158;-80
2021/08/23 10:13:11;;;;;;;1.88;1.42;;;;;;;28.95;35.58;102374.97;2624578;54;20165;-79
2021/08/23 10:15:42;;;;;;;2.38;1.65;;;;;;;29.22;35.98;102382.03;2623327;47;20158;-78
2021/08/23 10:18:08;;;;;;;2.47;1.55;;;;;;;29.06;35.29;102375.56;2623049;47;20154;-77
2021/08/23 10:20:36;;;;;;;2.20;1.70;;;;;;;28.66;35.78;102380.31;2623102;47;20675;-79
2021/08/23 10:23:16;;;;;;;2.15;1.60;;;;;;;28.68;35.75;102389.03;2623009;51;20139;-80
2021/08/23 10:25:48;;;;;;;2.90;1.60;;;;;;;29.11;35.29;102385.03;2624094;54;20139;-80
2021/08/23 10:28:19;;;;;;;2.30;1.50;;;;;;;29.52;35.75;102381.88;2624366;47;20149;-79
2021/08/23 10:30:44;;;;;;;2.72;1.90;;;;;;;29.72;34.98;102395.31;2621583;39;20585;-79
2021/08/23 10:33:17;;;;;;;2.25;1.48;;;;;;;29.30;34.65;102391.44;2619859;54;20142;-79
2021/08/23 10:35:50;;;;;;;5.00;1.80;;;;;;;28.47;35.52;102390.56;2620774;54;20179;-79
2021/08/23 10:38:19;;;;;;;1.90;1.50;;;;;;;27.92;35.75;102390.38;2622695;47;20162;-79
2021/08/23 10:40:45;;;;;;;2.63;1.60;;;;;;;27.53;37.13;102396.66;2620627;47;20136;-77
2021/08/23 10:43:18;;;;;;;3.15;1.42;;;;;;;27.10;36.52;102390.69;2620225;54;20205;-78
2021/08/23 10:45:44;;;;;;;3.92;1.50;;;;;;;27.34;36.88;102395.41;2620150;54;20132;-79
2021/08/23 10:48:18;;;;;;;2.72;1.48;;;;;;;28.42;35.65;102396.88;2621489;47;20182;-79
2021/08/23 10:50:57;;;;;;;2.88;1.60;;;;;;;29.63;33.93;102392.09;2622675;47;20151;-78
2021/08/23 10:53:35;;;;;;;2.15;1.67;;;;;;;30.16;32.04;102384.94;2622883;54;20191;-81
2021/08/23 10:56:14;;;;;;;1.67;1.38;;;;;;;30.84;32.04;102381.41;2622942;54;20147;-79
2021/08/23 10:58:39;;;;;;;3.63;1.50;;;;;;;30.58;32.37;102385.97;2624944;54;20183;-79
2021/08/23 11:01:15;;;;;;;2.10;1.33;;;;;;;30.63;32.47;102392.81;2624938;54;20108;-78
2021/08/23 11:03:43;;;;;;;2.35;1.40;;;;;;;29.79;33.58;102399.44;2623849;47;20174;-79
2021/08/23 11:06:11;;;;;;;1.80;1.42;;;;;;;28.97;34.04;102402.22;2623768;47;20247;-80
2021/08/23 11:08:37;;;;;;;2.33;1.30;;;;;;;28.44;34.41;102405.59;2625056;54;20181;-77
2021/08/23 11:11:14;;;;;;;2.65;1.25;;;;;;;28.11;36.37;102401.25;2621809;54;20127;-80
2021/08/23 11:13:43;;;;;;;1.52;1.20;;;;;;;28.11;36.40;102403.91;2620912;54;20139;-78
2021/08/23 11:16:09;;;;;;;2.35;1.70;;;;;;;28.37;35.61;102399.59;2621951;36;20770;-77
2021/08/23 11:18:42;;;;;;;3.08;1.73;;;;;;;29.27;36.07;102391.56;2621525;54;20156;-77
2021/08/23 11:21:07;;;;;;;3.42;1.52;;;;;;;30.51;34.25;102385.34;2621287;54;20147;-77